Time;durP1;ratioP1;P1;durP2;ratioP2;P2;SDS_P1;SDS_P2;PMS_P1;PMS_P2;Temp;Humidity;BMP_temperature;BMP_pressure;BME280_temperature;BME280_humidity;BME280_pressure;Samples;Min_cycle;Max_cycle;Signal;HPM_P1;HPM_P2
2023/12/27 00:03:13;;;;;;;0.80;0.80;;;;;;;21.64;35.97;98581.48;104402;1261;60109;-60
2023/12/27 00:05:51;;;;;;;0.60;0.50;;;;;;;21.12;36.77;98577.23;104696;1262;72851;-60
2023/12/27 00:09:08;;;;;;;1.10;0.90;;;;;;;21.00;37.15;98591.13;104124;1276;69101;-60
2023/12/27 00:16:09;;;;;;;1.80;1.00;;;;;;;21.01;37.75;98590.45;104353;1263;60952;-60
2023/12/27 00:23:09;;;;;;;1.60;1.00;;;;;;;20.77;38.30;98585.66;103900;1265;73678;-60
2023/12/27 00:25:49;;;;;;;1.40;1.10;;;;;;;20.82;38.39;98590.97;104152;1263;69751;-61
2023/12/27 00:28:17;;;;;;;1.70;1.20;;;;;;;21.07;38.11;98594.10;104175;1259;72346;-61
2023/12/27 00:30:51;;;;;;;1.80;1.20;;;;;;;20.99;38.17;98587.80;103986;1262;60704;-60
2023/12/27 00:33:22;;;;;;;3.00;1.10;;;;;;;21.05;38.32;98586.16;104373;1265;59732;-61
2023/12/27 00:35:54;;;;;;;1.80;0.90;;;;;;;21.02;38.68;98591.92;104755;1262;73490;-61
2023/12/27 00:38:35;;;;;;;1.40;1.10;;;;;;;20.98;38.55;98592.95;104523;1264;69760;-61
2023/12/27 00:41:06;;;;;;;1.50;1.10;;;;;;;21.09;38.58;98591.56;104080;1262;72521;-61
2023/12/27 00:43:37;;;;;;;2.80;1.10;;;;;;;21.03;38.53;98598.84;107543;1257;60621;-62
2023/12/27 00:46:08;;;;;;;2.00;1.40;;;;;;;21.42;38.35;98605.48;104985;1262;59710;-66
2023/12/27 00:48:40;;;;;;;1.60;1.20;;;;;;;21.25;38.39;98605.98;105066;1258;73240;-62
2023/12/27 00:51:19;;;;;;;2.60;1.30;;;;;;;21.15;38.74;98608.66;104874;1263;69109;-62
2023/12/27 00:53:48;;;;;;;1.40;1.30;;;;;;;21.20;38.74;98608.95;104519;1257;71205;-62
2023/12/27 00:56:19;;;;;;;1.50;1.10;;;;;;;21.10;39.15;98602.33;106245;1263;62115;-62
2023/12/27 00:58:51;;;;;;;1.40;1.30;;;;;;;20.96;39.58;98606.09;103935;1265;60086;-62
2023/12/27 01:01:22;;;;;;;2.00;1.40;;;;;;;20.93;39.94;98601.27;107529;1260;72938;-60
2023/12/27 01:03:53;;;;;;;1.20;1.10;;;;;;;21.10;39.47;98601.86;107484;1259;69477;-60
2023/12/27 01:06:24;;;;;;;2.40;1.70;;;;;;;20.94;39.49;98604.84;107489;1258;73039;-61
2023/12/27 01:09:18;;;;;;;1.80;1.30;;;;;;;20.72;39.94;98612.36;104579;1263;60993;-62
2023/12/27 01:12:30;;;;;;;2.10;1.30;;;;;;;20.43;40.14;98611.77;104302;1264;60761;-60
2023/12/27 01:15:42;;;;;;;2.50;1.20;;;;;;;20.78;39.63;98605.45;104092;1260;72945;-60
2023/12/27 01:18:54;;;;;;;1.50;1.40;;;;;;;21.47;38.44;98601.07;104110;1271;70150;-60
2023/12/27 01:22:06;;;;;;;1.10;1.00;;;;;;;21.49;37.95;98603.10;103992;1264;72224;-62
2023/12/27 01:25:19;;;;;;;1.40;1.30;;;;;;;20.81;38.78;98605.83;104796;1261;60257;-61
2023/12/27 01:28:31;;;;;;;1.30;1.20;;;;;;;20.89;38.55;98602.55;104308;1259;59794;-61
2023/12/27 01:40:38;;;;;;;1.90;1.30;;;;;;;20.34;39.12;98586.33;104068;1263;73959;-62
2023/12/27 01:43:09;;;;;;;2.00;1.80;;;;;;;20.13;39.46;98588.10;103958;1264;60593;-60
2023/12/27 01:45:40;;;;;;;1.70;1.50;;;;;;;20.06;39.37;98591.24;106600;1262;59762;-60
2023/12/27 01:48:10;;;;;;;1.50;1.20;;;;;;;20.16;39.36;98592.20;104131;1263;72843;-60
2023/12/27 01:50:42;;;;;;;1.60;1.30;;;;;;;19.96;39.56;98597.05;104304;1262;69143;-60
2023/12/27 01:53:12;;;;;;;2.00;1.40;;;;;;;19.81;39.77;98594.55;104307;1263;73371;-61
2023/12/27 01:55:44;;;;;;;2.00;1.60;;;;;;;20.26;38.99;98593.42;104138;1272;60588;-60
2023/12/27 01:58:56;;;;;;;3.50;1.60;;;;;;;20.35;38.72;98599.77;103981;1266;59799;-60
2023/12/27 02:02:08;;;;;;;3.20;1.60;;;;;;;19.94;39.26;98604.38;104033;1267;73281;-60
2023/12/27 02:05:23;;;;;;;1.60;1.40;;;;;;;19.78;39.57;98606.42;104526;1257;69144;-61
2023/12/27 02:08:38;;;;;;;2.60;2.00;;;;;;;19.68;39.91;98609.34;103988;1269;72582;-60
2023/12/27 02:11:50;;;;;;;2.40;1.50;;;;;;;19.55;39.76;98609.32;104245;1271;60802;-60
2023/12/27 02:15:02;;;;;;;1.80;1.50;;;;;;;19.39;39.98;98618.55;103924;1266;59876;-61
2023/12/27 02:18:13;;;;;;;2.60;1.50;;;;;;;19.42;39.92;98619.52;104283;1280;72982;-62
2023/12/27 02:21:26;;;;;;;2.90;1.50;;;;;;;19.45;39.69;98620.77;104329;1264;69302;-61
2023/12/27 02:24:38;;;;;;;1.80;1.60;;;;;;;19.47;39.58;98615.42;104297;1263;72810;-61
2023/12/27 02:27:50;;;;;;;2.70;1.60;;;;;;;19.34;39.81;98617.02;104156;1262;61030;-61
2023/12/27 02:31:01;;;;;;;1.50;1.30;;;;;;;19.54;39.14;98615.98;104197;1263;60085;-61
2023/12/27 02:34:14;;;;;;;1.50;1.30;;;;;;;19.50;39.18;98620.09;104173;1263;72932;-61
2023/12/27 02:36:45;;;;;;;1.90;1.40;;;;;;;19.66;38.76;98616.15;103953;1267;69876;-61
2023/12/27 02:39:25;;;;;;;2.80;1.40;;;;;;;19.65;38.57;98621.15;105154;1264;71205;-59
2023/12/27 02:41:56;;;;;;;1.70;1.20;;;;;;;19.67;38.51;98615.70;104182;1264;60589;-61
2023/12/27 02:45:01;;;;;;;2.20;1.50;;;;;;;19.68;38.30;98617.73;104294;1257;59749;-62
2023/12/27 02:47:38;;;;;;;1.70;1.60;;;;;;;19.92;37.67;98613.76;103942;1273;72867;-61
2023/12/27 02:50:34;;;;;;;1.80;1.50;;;;;;;19.68;38.01;98609.66;103945;1263;69341;-61
2023/12/27 02:53:49;;;;;;;2.80;1.90;;;;;;;19.65;37.82;98606.98;104018;1273;71206;-65
2023/12/27 02:57:02;;;;;;;1.40;1.10;;;;;;;19.74;37.72;98603.63;104037;1260;61031;-61
2023/12/27 03:00:21;;;;;;;3.10;1.40;;;;;;;19.77;37.41;98602.58;103925;1264;59781;-61
2023/12/27 03:03:39;;;;;;;2.40;1.40;;;;;;;20.26;36.53;98599.06;104052;1264;72010;-62
2023/12/27 03:06:29;;;;;;;3.60;1.60;;;;;;;20.41;36.25;98598.33;104153;1264;69559;-61
2023/12/27 03:13:33;;;;;;;4.60;1.60;;;;;;;20.16;35.98;98599.77;103908;1275;61871;-61
2023/12/27 03:16:45;;;;;;;4.50;1.60;;;;;;;20.33;35.90;98598.83;104198;1263;59838;-60
2023/12/27 03:19:56;;;;;;;2.20;1.30;;;;;;;20.38;35.93;98601.65;104402;1260;71724;-61
2023/12/27 03:23:09;;;;;;;1.90;1.30;;;;;;;20.32;35.82;98594.70;103997;1264;69639;-62
2023/12/27 03:25:53;;;;;;;1.70;1.10;;;;;;;20.37;35.51;98591.89;104418;1263;72388;-62
2023/12/27 03:29:06;;;;;;;2.40;1.50;;;;;;;20.23;35.57;98590.30;104139;1260;60994;-62
2023/12/27 03:32:18;;;;;;;1.70;1.20;;;;;;;20.28;35.61;98594.29;104310;1262;60118;-61
2023/12/27 03:35:30;;;;;;;2.40;1.60;;;;;;;20.22;35.73;98597.63;104353;1267;73320;-62
2023/12/27 03:38:42;;;;;;;1.80;1.30;;;;;;;20.27;35.46;98594.30;104062;1270;69535;-60
2023/12/27 03:41:54;;;;;;;1.60;1.10;;;;;;;20.06;35.61;98590.54;104216;1263;72487;-60
2023/12/27 03:44:26;;;;;;;2.00;1.40;;;;;;;20.10;35.60;98594.07;104936;1257;60602;-61
2023/12/27 03:46:57;;;;;;;2.20;0.90;;;;;;;20.03;35.27;98592.15;107663;1257;59530;-61
2023/12/27 03:49:30;;;;;;;2.00;0.90;;;;;;;20.12;35.16;98582.26;104937;1257;73282;-60
2023/12/27 03:52:45;;;;;;;3.10;1.30;;;;;;;20.20;34.97;98580.47;104271;1263;69723;-60
2023/12/27 03:55:12;;;;;;;2.60;1.10;;;;;;;20.29;34.95;98580.25;104116;1263;72505;-61
2023/12/27 03:57:43;;;;;;;2.70;1.50;;;;;;;20.29;34.64;98574.58;107481;1257;60899;-61
2023/12/27 04:00:15;;;;;;;2.50;1.10;;;;;;;20.39;34.54;98570.19;104521;1263;60227;-61
2023/12/27 04:02:46;;;;;;;2.10;1.30;;;;;;;20.32;34.55;98574.98;104209;1263;74063;-60
2023/12/27 04:05:17;;;;;;;1.80;1.30;;;;;;;20.40;34.55;98577.56;104486;1261;70869;-60
2023/12/27 04:07:47;;;;;;;1.30;1.00;;;;;;;20.47;34.11;98580.99;105058;1258;72187;-61
2023/12/27 04:10:53;;;;;;;1.50;1.20;;;;;;;20.15;34.40;98578.28;104361;1261;61708;-61
2023/12/27 04:14:05;;;;;;;2.10;1.30;;;;;;;20.10;34.74;98574.98;104177;1257;60525;-61
2023/12/27 04:20:31;;;;;;;2.50;1.80;;;;;;;20.12;34.56;98580.83;104361;1257;68178;-60
2023/12/27 04:23:44;;;;;;;3.10;1.20;;;;;;;20.08;34.67;98578.89;104098;1260;72375;-60
2023/12/27 04:26:59;;;;;;;1.90;1.30;;;;;;;20.12;34.43;98582.27;104003;1260;62347;-61
2023/12/27 04:30:14;;;;;;;2.70;1.40;;;;;;;20.38;34.07;98582.92;104173;1257;60348;-60
2023/12/27 04:32:44;;;;;;;3.60;1.10;;;;;;;20.12;34.21;98596.70;104110;1267;73629;-61
2023/12/27 04:39:46;;;;;;;2.20;1.00;;;;;;;19.41;35.07;98608.54;104264;1257;74153;-61
2023/12/27 04:43:10;;;;;;;2.30;1.10;;;;;;;19.40;35.23;98601.17;105173;1263;64071;-59
2023/12/27 04:45:41;;;;;;;1.60;0.90;;;;;;;19.57;35.16;98609.69;104404;1257;60577;-60
2023/12/27 04:48:12;;;;;;;2.30;1.30;;;;;;;19.50;35.19;98605.52;104970;1258;73698;-59
2023/12/27 04:50:43;;;;;;;3.10;1.10;;;;;;;19.48;34.76;98609.70;104518;1260;68870;-60
2023/12/27 04:53:14;;;;;;;3.30;1.10;;;;;;;19.61;34.55;98598.29;104803;1260;73430;-60
2023/12/27 04:55:42;;;;;;;1.50;1.00;;;;;;;19.39;34.62;98597.33;103991;1264;61120;-61
2023/12/27 04:58:13;;;;;;;3.60;1.50;;;;;;;19.15;34.72;98589.15;105024;1258;60335;-60
2023/12/27 05:00:50;;;;;;;3.00;1.10;;;;;;;19.20;34.63;98595.98;104090;1259;74199;-61
2023/12/27 05:04:04;;;;;;;3.50;1.10;;;;;;;19.15;34.59;98595.36;103883;1257;69047;-61
2023/12/27 05:10:28;;;;;;;2.30;1.50;;;;;;;18.93;34.83;98599.08;104189;1260;60610;-60
2023/12/27 05:17:11;;;;;;;2.60;1.70;;;;;;;19.58;33.99;98591.42;104116;1261;74008;-61
2023/12/27 05:19:52;;;;;;;1.50;1.20;;;;;;;19.43;34.24;98592.31;103948;1264;69115;-62
2023/12/27 05:23:08;;;;;;;2.30;1.10;;;;;;;19.36;34.33;98588.23;104062;1276;72922;-62
2023/12/27 05:29:51;;;;;;;1.90;1.00;;;;;;;19.25;34.52;98587.70;104209;1260;60565;-62
2023/12/27 05:36:39;;;;;;;3.00;2.00;;;;;;;18.83;35.12;98612.41;104188;1271;69086;-61
2023/12/27 05:43:23;;;;;;;2.80;1.60;;;;;;;18.93;35.14;98623.77;104320;1257;60559;-59
2023/12/27 05:45:55;;;;;;;2.40;1.20;;;;;;;18.80;35.45;98617.85;106671;1257;60455;-59
2023/12/27 05:48:26;;;;;;;2.20;1.40;;;;;;;18.97;35.41;98608.79;107284;1257;73196;-60
2023/12/27 05:54:27;;;;;;;2.00;1.00;;;;;;;18.72;35.47;98619.29;106904;1260;71200;-60
2023/12/27 05:56:58;;;;;;;3.00;0.90;;;;;;;18.99;35.48;98618.02;107358;1257;60623;-61
2023/12/27 05:59:31;;;;;;;2.80;1.40;;;;;;;19.45;34.72;98621.83;104268;1258;60574;-59
2023/12/27 06:02:03;;;;;;;2.60;1.10;;;;;;;19.62;34.60;98619.50;104383;1264;74442;-59
2023/12/27 06:04:34;;;;;;;2.70;1.20;;;;;;;19.53;34.66;98618.76;104368;1261;69835;-59
2023/12/27 06:07:05;;;;;;;2.50;1.50;;;;;;;19.82;34.26;98617.30;104262;1258;71309;-59
2023/12/27 06:10:21;;;;;;;2.10;1.60;;;;;;;19.75;34.30;98619.92;103844;1267;60765;-59
2023/12/27 06:17:04;;;;;;;2.30;1.20;;;;;;;19.79;33.97;98626.10;103911;1266;74089;-59
2023/12/27 06:20:16;;;;;;;1.80;1.10;;;;;;;19.60;34.33;98635.56;104224;1257;69066;-61
2023/12/27 06:23:28;;;;;;;3.00;1.50;;;;;;;19.76;34.11;98633.64;103977;1270;75171;-61
2023/12/27 06:25:56;;;;;;;2.20;1.30;;;;;;;19.74;34.12;98631.02;103975;1261;60666;-61
2023/12/27 06:33:27;;;;;;;1.50;1.10;;;;;;;19.26;34.59;98642.67;104335;1258;75279;-61
2023/12/27 06:36:39;;;;;;;2.30;1.30;;;;;;;18.65;35.49;98642.81;103984;1276;69813;-63
2023/12/27 06:39:51;;;;;;;3.60;1.40;;;;;;;18.42;35.60;98638.64;103911;1263;71461;-65
2023/12/27 06:43:03;;;;;;;4.60;1.80;;;;;;;18.76;35.22;98640.03;104137;1266;62232;-62
2023/12/27 06:45:34;;;;;;;2.50;1.10;;;;;;;18.56;35.39;98642.17;104623;1261;60459;-61
2023/12/27 06:48:06;;;;;;;2.50;1.10;;;;;;;18.47;35.37;98646.91;107385;1257;74624;-65
2023/12/27 06:50:37;;;;;;;3.80;1.30;;;;;;;18.53;35.50;98655.25;105863;1259;69519;-61
2023/12/27 06:53:08;;;;;;;2.20;1.20;;;;;;;18.38;35.99;98649.88;104820;1259;72944;-62
2023/12/27 06:55:35;;;;;;;6.30;1.30;;;;;;;18.34;36.05;98655.73;104069;1261;60575;-63
2023/12/27 06:58:06;;;;;;;4.20;1.40;;;;;;;18.71;35.65;98655.77;105939;1258;60596;-62
2023/12/27 07:00:54;;;;;;;2.70;0.70;;;;;;;18.95;35.38;98660.98;104955;1259;74475;-62
2023/12/27 07:07:38;;;;;;;1.70;0.90;;;;;;;18.43;35.18;98662.77;104324;1262;73398;-61
2023/12/27 07:10:34;;;;;;;1.10;0.80;;;;;;;18.26;34.44;98659.25;104743;1257;61576;-62
2023/12/27 07:13:50;;;;;;;2.50;0.70;;;;;;;18.80;33.96;98660.46;104544;1260;60540;-62
2023/12/27 07:20:33;;;;;;;0.50;0.40;;;;;;;18.27;32.74;98663.28;105131;1259;69265;-62
2023/12/27 07:23:44;;;;;;;1.10;0.50;;;;;;;18.44;32.34;98667.74;104135;1257;71912;-64
2023/12/27 07:30:44;;;;;;;0.70;0.40;;;;;;;18.14;31.64;98695.52;104641;1257;59739;-60
2023/12/27 07:33:57;;;;;;;0.40;0.40;;;;;;;18.07;31.40;98707.63;104706;1257;73905;-61
2023/12/27 07:37:09;;;;;;;0.80;0.50;;;;;;;18.20;31.48;98717.45;104236;1263;69595;-67
2023/12/27 07:44:44;;;;;;;0.20;0.20;;;;;;;17.87;32.39;98750.37;104054;1259;62558;-63
2023/12/27 07:47:17;;;;;;;1.10;0.50;;;;;;;17.80;32.44;98744.02;106568;1258;60533;-60
2023/12/27 07:49:48;;;;;;;1.30;0.50;;;;;;;18.14;32.42;98749.05;107522;1257;72859;-60
2023/12/27 07:52:18;;;;;;;0.70;0.40;;;;;;;18.57;32.05;98744.20;105239;1261;69181;-62
2023/12/27 07:54:49;;;;;;;0.40;0.30;;;;;;;18.57;32.17;98747.30;104075;1261;72573;-60
2023/12/27 07:57:21;;;;;;;1.00;0.30;;;;;;;18.35;32.61;98759.21;104012;1260;61071;-61
2023/12/27 07:59:55;;;;;;;0.50;0.40;;;;;;;18.10;32.99;98770.55;104297;1254;60458;-61
2023/12/27 08:06:56;;;;;;;0.60;0.40;;;;;;;18.33;33.20;98765.32;104355;1254;69494;-63
2023/12/27 08:10:07;;;;;;;0.70;0.50;;;;;;;18.14;33.51;98767.91;104921;1260;72501;-62
2023/12/27 08:13:19;;;;;;;1.10;0.50;;;;;;;17.92;33.89;98772.64;104773;1255;60992;-63
2023/12/27 08:20:20;;;;;;;0.50;0.50;;;;;;;17.53;34.50;98798.74;104362;1267;72607;-63
2023/12/27 08:23:37;;;;;;;3.20;0.60;;;;;;;17.17;34.96;98799.50;104718;1255;69255;-64
2023/12/27 08:26:49;;;;;;;1.70;0.80;;;;;;;17.45;34.81;98804.61;104324;1270;71833;-64
2023/12/27 08:30:04;;;;;;;1.10;0.70;;;;;;;17.35;34.77;98813.91;104283;1260;60619;-63
2023/12/27 08:33:16;;;;;;;2.00;0.80;;;;;;;17.52;34.67;98827.71;104426;1256;60374;-64
2023/12/27 08:35:54;;;;;;;1.20;0.70;;;;;;;17.51;34.83;98828.73;104457;1258;73926;-63
2023/12/27 08:39:08;;;;;;;1.80;0.70;;;;;;;17.62;34.60;98839.14;104564;1255;69945;-63
2023/12/27 08:45:14;;;;;;;0.70;0.40;;;;;;;17.34;35.00;98846.98;105181;1267;60933;-61
2023/12/27 08:47:45;;;;;;;0.90;0.50;;;;;;;17.30;34.84;98851.21;104841;1260;60713;-63
2023/12/27 08:50:44;;;;;;;0.40;0.40;;;;;;;17.33;34.91;98848.99;105028;1255;73684;-65
2023/12/27 08:53:15;;;;;;;1.40;0.70;;;;;;;17.32;35.14;98858.29;104553;1261;69727;-62
2023/12/27 08:55:43;;;;;;;0.90;0.50;;;;;;;17.52;34.94;98851.63;104605;1255;71875;-63
2023/12/27 09:02:07;;;;;;;0.80;0.50;;;;;;;17.68;34.30;98847.96;104749;1255;60551;-62
2023/12/27 09:08:52;;;;;;;0.30;0.30;;;;;;;17.94;33.67;98852.26;105063;1255;70066;-61
2023/12/27 09:15:00;;;;;;;0.30;0.30;;;;;;;17.94;33.31;98860.17;104647;1255;60654;-64
2023/12/27 09:21:45;;;;;;;0.80;0.40;;;;;;;17.92;32.82;98868.89;104430;1267;73747;-68
2023/12/27 09:28:29;;;;;;;0.50;0.30;;;;;;;17.82;32.52;98884.08;104444;1261;72351;-65
2023/12/27 09:35:17;;;;;;;0.30;0.30;;;;;;;17.97;32.51;98895.78;105453;1255;60451;-66
2023/12/27 09:41:51;;;;;;;0.90;0.40;;;;;;;18.13;32.21;98904.27;105068;1254;69242;-69
2023/12/27 09:47:53;;;;;;;0.60;0.30;;;;;;;18.49;31.66;98916.29;104476;1259;61092;-68
2023/12/27 09:50:25;;;;;;;1.60;0.30;;;;;;;18.60;31.49;98919.18;106992;1255;59740;-67
2023/12/27 09:52:56;;;;;;;0.40;0.40;;;;;;;18.60;31.52;98911.80;106857;1255;74117;-69
2023/12/27 09:55:26;;;;;;;0.40;0.30;;;;;;;18.31;31.96;98915.76;104846;1256;69773;-69
2023/12/27 09:57:57;;;;;;;1.00;0.50;;;;;;;18.31;32.06;98919.29;105460;1254;72977;-70
2023/12/27 10:00:30;;;;;;;0.70;0.50;;;;;;;18.26;32.07;98922.69;105044;1257;60891;-69
2023/12/27 10:03:43;;;;;;;0.60;0.50;;;;;;;17.88;32.22;98927.68;105356;1254;60805;-69
2023/12/27 10:06:36;;;;;;;0.40;0.40;;;;;;;18.00;32.41;98929.73;104264;1256;73964;-69
2023/12/27 10:09:48;;;;;;;0.70;0.60;;;;;;;17.91;32.44;98931.35;104574;1258;69718;-70
2023/12/27 10:13:02;;;;;;;0.70;0.60;;;;;;;17.62;32.69;98939.39;104599;1259;72677;-70
2023/12/27 10:15:52;;;;;;;0.50;0.50;;;;;;;17.90;32.58;98942.09;104671;1267;61401;-69
2023/12/27 10:19:05;;;;;;;1.10;0.40;;;;;;;17.86;32.52;98954.80;104890;1255;60452;-69
2023/12/27 10:22:17;;;;;;;0.70;0.50;;;;;;;17.85;32.34;98955.61;104686;1256;72428;-69
2023/12/27 10:25:29;;;;;;;0.30;0.30;;;;;;;17.60;32.72;98965.08;104745;1255;69766;-68
2023/12/27 10:28:29;;;;;;;0.70;0.40;;;;;;;17.51;32.73;98965.12;104333;1264;72372;-69
2023/12/27 10:38:44;;;;;;;0.90;0.60;;;;;;;17.75;32.58;98963.89;104498;1260;73802;-73
2023/12/27 10:41:56;;;;;;;1.00;0.60;;;;;;;17.84;32.31;98965.81;104507;1260;69625;-72
2023/12/27 10:45:07;;;;;;;0.90;0.60;;;;;;;17.81;32.20;98971.15;104498;1264;73595;-71
2023/12/27 10:48:19;;;;;;;1.00;0.50;;;;;;;17.88;32.20;98966.32;104415;1260;60914;-73
2023/12/27 10:50:54;;;;;;;0.50;0.50;;;;;;;17.70;32.11;98971.73;104582;1256;60456;-69
2023/12/27 10:53:25;;;;;;;0.80;0.70;;;;;;;17.79;32.01;98972.72;104584;1256;73799;-70
2023/12/27 10:55:56;;;;;;;2.10;0.60;;;;;;;17.70;32.23;98982.02;106382;1253;69567;-71
2023/12/27 10:58:28;;;;;;;1.10;0.40;;;;;;;17.65;32.50;98980.09;107764;1254;71602;-71
2023/12/27 11:01:00;;;;;;;3.80;0.60;;;;;;;17.85;32.42;98981.48;107747;1254;59744;-70
2023/12/27 11:03:32;;;;;;;0.80;0.70;;;;;;;17.80;32.53;98975.50;107610;1255;59991;-71
2023/12/27 11:06:04;;;;;;;3.70;0.70;;;;;;;18.00;32.49;98983.94;106040;1255;73788;-72
2023/12/27 11:12:19;;;;;;;1.30;0.90;;;;;;;16.77;35.33;98987.87;101413;1304;600886;-71
2023/12/27 11:23:27;;;;;;;1.30;0.70;;;;;;;17.90;32.53;98987.83;104374;1266;71940;-72
2023/12/27 11:30:28;;;;;;;1.00;0.70;;;;;;;17.90;32.63;98981.91;104138;1265;72526;-71
2023/12/27 11:33:44;;;;;;;1.30;0.80;;;;;;;17.87;32.60;98987.16;104609;1260;60796;-66
2023/12/27 11:36:46;;;;;;;1.90;0.70;;;;;;;17.82;32.56;98999.83;107862;1254;60553;-65
2023/12/27 11:44:17;;;;;;;2.40;1.10;;;;;;;17.79;32.57;99012.64;108221;1254;69823;-70
2023/12/27 11:47:32;;;;;;;3.80;0.70;;;;;;;17.70;32.71;99009.99;108284;1253;72449;-73
2023/12/27 11:50:09;;;;;;;2.00;0.90;;;;;;;17.76;32.94;99013.20;108120;1254;60853;-68
2023/12/27 11:52:46;;;;;;;1.00;0.90;;;;;;;17.83;32.92;99018.55;107868;1254;60711;-66
2023/12/27 11:55:33;;;;;;;2.90;0.90;;;;;;;17.54;33.10;99026.21;107960;1254;73559;-66
2023/12/27 11:58:04;;;;;;;2.50;0.80;;;;;;;17.52;33.10;99022.13;107829;1254;68209;-68
2023/12/27 12:00:36;;;;;;;1.50;1.10;;;;;;;17.36;33.31;99025.92;107946;1257;72995;-69
2023/12/27 12:03:13;;;;;;;1.00;0.70;;;;;;;17.62;33.04;99026.06;107930;1256;60761;-68
2023/12/27 12:05:58;;;;;;;1.90;1.40;;;;;;;17.81;32.62;99033.38;107787;1254;59987;-68
2023/12/27 12:09:09;;;;;;;2.50;1.40;;;;;;;17.89;32.41;99030.30;108212;1254;73133;-68
2023/12/27 12:11:36;;;;;;;2.60;1.10;;;;;;;17.40;32.91;99038.30;108035;1254;68337;-69
2023/12/27 12:14:48;;;;;;;2.10;1.00;;;;;;;17.31;33.39;99043.08;108048;1254;72490;-69
2023/12/27 12:21:51;;;;;;;0.80;0.80;;;;;;;17.20;33.30;99052.07;107939;1256;60327;-68
2023/12/27 12:24:22;;;;;;;0.90;0.80;;;;;;;18.15;32.11;99052.41;107977;1256;72878;-69
2023/12/27 12:27:24;;;;;;;2.50;1.00;;;;;;;18.27;32.07;99055.87;107987;1254;69546;-68
2023/12/27 12:30:29;;;;;;;1.70;1.10;;;;;;;18.30;31.93;99053.95;107926;1255;72845;-69
2023/12/27 12:33:31;;;;;;;0.80;0.80;;;;;;;18.27;32.03;99061.30;107955;1256;60865;-70
2023/12/27 12:36:02;;;;;;;1.60;1.10;;;;;;;18.20;31.80;99068.17;108236;1254;59935;-69
2023/12/27 12:39:16;;;;;;;1.30;0.80;;;;;;;18.23;31.76;99063.65;107890;1254;73688;-69
2023/12/27 12:46:17;;;;;;;0.70;0.70;;;;;;;18.26;31.33;99064.48;107927;1256;71405;-70
2023/12/27 12:49:29;;;;;;;1.70;1.00;;;;;;;18.31;31.39;99071.82;108187;1254;60702;-72
2023/12/27 12:52:44;;;;;;;4.00;0.80;;;;;;;18.90;30.76;99066.53;107863;1256;59975;-70
2023/12/27 12:55:41;;;;;;;3.70;0.90;;;;;;;18.46;31.14;99071.64;108220;1253;71909;-70
2023/12/27 12:58:12;;;;;;;1.50;0.90;;;;;;;18.14;31.52;99072.38;107814;1255;69285;-69
2023/12/27 13:00:43;;;;;;;2.30;1.40;;;;;;;18.07;31.78;99082.85;107712;1256;73440;-70
2023/12/27 13:03:14;;;;;;;1.40;0.90;;;;;;;17.82;32.24;99088.27;107521;1255;61029;-68
2023/12/27 13:05:47;;;;;;;1.40;0.80;;;;;;;17.94;32.88;99111.55;107894;1255;60083;-69
2023/12/27 13:08:18;;;;;;;1.70;0.70;;;;;;;17.73;34.47;99139.61;107939;1255;73517;-69
2023/12/27 13:10:46;;;;;;;5.70;0.80;;;;;;;17.72;35.07;99136.73;107803;1255;70094;-68
2023/12/27 13:13:29;;;;;;;1.60;1.00;;;;;;;17.86;34.73;99124.77;107739;1257;73675;-69
2023/12/27 13:16:41;;;;;;;1.50;1.00;;;;;;;17.78;34.50;99132.34;107765;1257;60590;-69
2023/12/27 13:24:02;;;;;;;0.70;0.50;;;;;;;17.30;35.08;99148.91;108045;1255;73338;-69
2023/12/27 13:27:14;;;;;;;0.80;0.60;;;;;;;17.23;35.20;99156.76;107979;1254;69562;-68
2023/12/27 13:30:25;;;;;;;2.50;0.80;;;;;;;17.23;35.24;99165.60;108122;1256;74808;-69
2023/12/27 13:44:09;;;;;;;2.10;1.50;;;;;;;16.58;35.99;99176.73;108401;1253;70102;-70
2023/12/27 13:47:21;;;;;;;1.00;0.70;;;;;;;16.87;35.64;99175.79;108473;1250;73123;-67
2023/12/27 13:50:19;;;;;;;1.10;0.70;;;;;;;16.84;35.67;99174.38;108496;1253;59620;-69
2023/12/27 13:52:50;;;;;;;0.90;0.70;;;;;;;16.90;35.39;99181.40;108190;1252;60153;-66
2023/12/27 13:55:21;;;;;;;2.20;0.90;;;;;;;16.94;35.21;99181.64;108264;1252;72433;-67
2023/12/27 13:57:54;;;;;;;0.40;0.40;;;;;;;16.86;35.28;99179.08;108204;1253;70440;-66
2023/12/27 14:00:26;;;;;;;0.90;0.60;;;;;;;16.76;35.33;99185.83;108135;1251;72497;-66
2023/12/27 14:02:57;;;;;;;2.00;0.60;;;;;;;16.43;35.42;99182.43;108192;1253;62108;-69
2023/12/27 14:05:31;;;;;;;0.70;0.70;;;;;;;16.40;35.55;99191.34;108382;1253;59773;-70
2023/12/27 14:11:35;;;;;;;1.80;0.90;;;;;;;16.82;34.93;99197.05;108222;1251;68778;-67
2023/12/27 14:14:25;;;;;;;1.10;0.60;;;;;;;17.12;34.10;99200.77;108447;1252;71387;-69
2023/12/27 14:20:53;;;;;;;1.70;1.00;;;;;;;16.68;34.07;99204.27;108231;1251;60079;-66
2023/12/27 14:24:05;;;;;;;49.90;2.80;;;;;;;16.95;33.99;99207.01;108429;1253;72987;-62
2023/12/27 14:27:16;;;;;;;2.30;0.90;;;;;;;16.88;33.86;99213.63;108317;1251;69253;-66
2023/12/27 14:30:28;;;;;;;1.50;0.90;;;;;;;16.79;33.87;99220.45;108445;1253;72749;-61
2023/12/27 14:33:42;;;;;;;1.70;0.90;;;;;;;16.90;33.56;99223.67;108395;1252;59702;-66
2023/12/27 14:40:53;;;;;;;1.00;0.60;;;;;;;16.55;33.84;99233.38;108325;1253;73000;-66
2023/12/27 14:44:11;;;;;;;2.00;0.80;;;;;;;16.47;34.21;99241.21;108397;1252;70065;-67
2023/12/27 14:47:31;;;;;;;4.20;0.90;;;;;;;16.41;34.32;99244.67;108335;1253;73324;-66
2023/12/27 14:50:02;;;;;;;1.00;1.00;;;;;;;16.46;34.25;99241.97;108202;1253;59596;-66
2023/12/27 14:53:04;;;;;;;2.30;1.20;;;;;;;16.25;34.51;99245.84;108297;1253;60028;-67
2023/12/27 14:55:54;;;;;;;1.40;1.10;;;;;;;16.58;33.98;99253.30;108418;1253;72951;-67
2023/12/27 14:58:38;;;;;;;3.60;0.90;;;;;;;16.54;33.76;99258.39;108440;1253;69055;-65
2023/12/27 15:01:10;;;;;;;2.10;0.90;;;;;;;16.62;33.73;99269.88;108298;1253;72697;-66
2023/12/27 15:03:41;;;;;;;2.20;0.90;;;;;;;16.37;33.80;99273.28;108301;1253;61043;-67
2023/12/27 15:06:12;;;;;;;1.00;0.80;;;;;;;16.46;33.69;99271.58;108330;1253;59198;-66
2023/12/27 15:08:44;;;;;;;1.00;0.80;;;;;;;16.41;33.64;99279.34;108331;1253;73308;-67
2023/12/27 15:11:15;;;;;;;2.10;1.00;;;;;;;16.32;33.68;99289.87;108138;1253;70206;-67
2023/12/27 15:13:46;;;;;;;1.10;0.90;;;;;;;16.31;33.92;99297.19;108179;1253;73420;-66
2023/12/27 15:16:58;;;;;;;1.40;1.00;;;;;;;16.41;34.00;99323.70;108206;1253;60873;-67
2023/12/27 15:20:10;;;;;;;2.00;1.00;;;;;;;16.47;34.17;99328.76;108339;1252;60480;-67
2023/12/27 15:23:18;;;;;;;8.50;4.50;;;;;;;16.53;34.05;99337.88;108470;1253;73364;-67
2023/12/27 15:26:29;;;;;;;5.80;3.50;;;;;;;16.49;34.08;99338.34;108367;1252;69956;-68
2023/12/27 15:29:44;;;;;;;2.60;1.20;;;;;;;16.42;33.93;99339.91;108541;1252;72298;-66
2023/12/27 15:32:55;;;;;;;2.30;1.30;;;;;;;16.21;34.14;99344.41;108318;1253;61573;-69
2023/12/27 15:36:07;;;;;;;2.30;1.40;;;;;;;16.09;34.21;99353.23;108448;1252;59722;-69
2023/12/27 15:39:19;;;;;;;2.20;1.30;;;;;;;15.96;34.39;99357.52;108489;1251;73538;-69
2023/12/27 15:49:33;;;;;;;2.50;1.10;;;;;;;15.99;34.28;99390.66;108465;1253;60735;-69
2023/12/27 15:52:05;;;;;;;1.40;1.00;;;;;;;15.90;34.21;99396.45;108237;1252;60854;-69
2023/12/27 15:54:37;;;;;;;1.00;0.80;;;;;;;15.87;34.29;99390.79;108363;1252;73301;-70
2023/12/27 15:57:10;;;;;;;1.90;1.10;;;;;;;15.69;34.58;99412.89;108234;1253;69939;-69
2023/12/27 15:59:44;;;;;;;1.40;1.20;;;;;;;15.67;34.70;99420.09;108229;1253;72184;-69
2023/12/27 16:02:14;;;;;;;1.80;1.40;;;;;;;16.00;34.37;99427.57;108300;1252;59695;-68
2023/12/27 16:04:46;;;;;;;3.50;1.90;;;;;;;16.08;34.34;99428.23;108246;1251;60234;-68
2023/12/27 16:07:58;;;;;;;2.30;1.60;;;;;;;16.51;33.78;99429.16;108316;1253;72841;-68
2023/12/27 16:10:29;;;;;;;2.30;2.00;;;;;;;16.23;33.96;99432.32;108362;1252;69190;-69
2023/12/27 16:12:57;;;;;;;1.30;1.20;;;;;;;15.06;35.88;99445.80;108317;1252;75610;-69
2023/12/27 16:15:28;;;;;;;2.60;2.00;;;;;;;14.14;37.10;99446.85;108195;1254;61163;-68
2023/12/27 16:18:03;;;;;;;2.50;1.40;;;;;;;13.52;38.27;99458.06;108278;1253;60031;-70
2023/12/27 16:20:33;;;;;;;1.90;1.00;;;;;;;12.40;40.50;99462.86;108324;1251;74068;-70